Time;durP1;ratioP1;P1;durP2;ratioP2;P2;SDS_P1;SDS_P2;PMS_P1;PMS_P2;Temp;Humidity;BMP_temperature;BMP_pressure;BME280_temperature;BME280_humidity;BME280_pressure;Samples;Min_cycle;Max_cycle;Signal;HPM_P1;HPM_P2
2023/11/12 00:00:07;;;;;;;2.20;1.70;;;;;;;8.17;98.67;96846.83;105871;1253;72609;-22
2023/11/12 00:02:34;;;;;;;1.90;1.30;;;;;;;8.39;97.66;96845.41;105683;1258;61294;-23
2023/11/12 00:05:01;;;;;;;2.30;1.70;;;;;;;8.46;95.89;96837.30;105586;1257;61165;-23
2023/11/12 00:07:28;;;;;;;3.50;2.00;;;;;;;8.28;96.26;96839.17;105721;1253;73520;-22
2023/11/12 00:09:55;;;;;;;3.30;1.70;;;;;;;8.03;97.64;96837.48;105788;1253;74313;-23
2023/11/12 00:12:22;;;;;;;2.10;1.20;;;;;;;7.91;99.70;96844.08;105764;1253;71491;-23
2023/11/12 00:14:50;;;;;;;2.60;1.70;;;;;;;8.44;96.64;96840.45;105845;1253;61096;-23
2023/11/12 00:17:17;;;;;;;2.10;1.60;;;;;;;8.43;95.54;96839.16;105842;1257;61157;-22
2023/11/12 00:19:44;;;;;;;2.40;1.90;;;;;;;8.20;96.98;96835.00;105855;1253;73678;-23
2023/11/12 00:22:12;;;;;;;2.80;2.10;;;;;;;8.19;97.36;96833.00;105692;1257;74833;-23
2023/11/12 00:24:39;;;;;;;2.50;1.80;;;;;;;8.14;98.26;96829.56;105811;1253;72503;-23
2023/11/12 00:27:06;;;;;;;2.70;1.90;;;;;;;8.39;96.35;96826.54;105647;1253;61172;-22
2023/11/12 00:29:33;;;;;;;2.50;1.80;;;;;;;8.41;95.34;96825.11;105669;1253;61095;-22
2023/11/12 00:32:03;;;;;;;3.00;1.90;;;;;;;8.26;95.71;96820.53;105726;1253;74192;-23
2023/11/12 00:34:31;;;;;;;1.70;1.40;;;;;;;8.09;96.97;96826.27;105384;1253;74462;-23
2023/11/12 00:36:58;;;;;;;3.10;1.70;;;;;;;8.22;96.67;96824.95;105593;1258;72685;-23
2023/11/12 00:39:26;;;;;;;2.00;1.60;;;;;;;8.41;95.48;96822.16;105866;1252;61097;-23
2023/11/12 00:41:53;;;;;;;2.20;1.70;;;;;;;8.22;94.74;96816.27;105745;1258;61129;-23
2023/11/12 00:44:21;;;;;;;2.40;1.60;;;;;;;8.20;95.30;96814.95;105903;1253;73732;-22
2023/11/12 00:46:48;;;;;;;1.70;1.30;;;;;;;7.93;96.20;96813.27;105739;1253;73328;-23
2023/11/12 00:49:15;;;;;;;2.80;1.70;;;;;;;8.05;96.59;96815.52;105818;1253;72370;-23
2023/11/12 00:51:42;;;;;;;4.50;1.70;;;;;;;8.09;95.47;96806.11;105833;1258;61032;-22
2023/11/12 00:54:09;;;;;;;2.30;1.70;;;;;;;8.01;95.82;96812.98;105756;1257;61248;-23
2023/11/12 00:56:36;;;;;;;2.20;1.60;;;;;;;7.92;97.02;96811.41;105783;1253;73783;-25
2023/11/12 00:59:05;;;;;;;3.40;2.10;;;;;;;7.74;98.49;96810.32;105836;1252;74275;-23
2023/11/12 01:01:32;;;;;;;3.00;2.40;;;;;;;8.10;97.32;96808.25;105822;1259;71655;-23
2023/11/12 01:04:00;;;;;;;4.50;2.10;;;;;;;8.26;95.11;96800.09;105835;1253;61147;-23
2023/11/12 01:06:29;;;;;;;3.60;2.20;;;;;;;8.21;95.71;96804.16;103107;1253;3585711;-23
2023/11/12 01:08:56;;;;;;;3.90;3.00;;;;;;;8.03;97.00;96802.09;105586;1259;61213;-23
2023/11/12 01:11:24;;;;;;;4.30;2.90;;;;;;;7.66;99.66;96801.94;105848;1253;61228;-23
2023/11/12 01:13:51;;;;;;;4.60;2.40;;;;;;;8.20;97.98;96799.74;105886;1253;72456;-23
2023/11/12 01:16:19;;;;;;;4.50;2.50;;;;;;;8.29;95.74;96793.41;105848;1253;61143;-23
2023/11/12 01:18:46;;;;;;;3.90;2.60;;;;;;;7.67;99.06;96791.69;105676;1256;61164;-23
2023/11/12 01:21:14;;;;;;;3.20;2.50;;;;;;;7.61;99.69;96786.58;105793;1253;74562;-22
2023/11/12 01:23:41;;;;;;;3.00;2.20;;;;;;;7.65;99.87;96788.42;105656;1254;74519;-22
2023/11/12 01:26:08;;;;;;;6.50;2.90;;;;;;;8.02;97.05;96787.30;105848;1253;72663;-22
2023/11/12 01:28:35;;;;;;;2.20;1.90;;;;;;;7.92;96.68;96779.73;105858;1256;61176;-22
2023/11/12 01:31:03;;;;;;;2.60;1.90;;;;;;;7.78;97.05;96784.99;105719;1259;61232;-22
2023/11/12 01:33:30;;;;;;;2.10;1.70;;;;;;;7.44;99.34;96787.29;105927;1253;74407;-22
2023/11/12 01:35:57;;;;;;;2.70;2.00;;;;;;;7.66;98.91;96787.09;105798;1258;74430;-22
2023/11/12 01:38:24;;;;;;;3.80;2.10;;;;;;;7.91;96.52;96786.56;105835;1254;72527;-22
2023/11/12 01:40:54;;;;;;;2.70;2.00;;;;;;;7.74;97.26;96776.61;105690;1254;61115;-22
2023/11/12 01:43:21;;;;;;;3.60;2.60;;;;;;;7.50;99.07;96781.17;105814;1259;61232;-22
2023/11/12 01:45:49;;;;;;;4.80;2.30;;;;;;;7.46;99.84;96782.27;105921;1254;74346;-22
2023/11/12 01:48:16;;;;;;;3.50;2.30;;;;;;;7.74;98.08;96778.80;105813;1253;74409;-22
2023/11/12 01:50:43;;;;;;;3.70;1.80;;;;;;;7.86;96.50;96777.63;105903;1252;72493;-23
2023/11/12 01:53:11;;;;;;;3.20;2.20;;;;;;;7.76;96.51;96777.42;105633;1257;61106;-22
2023/11/12 01:55:37;;;;;;;2.40;2.00;;;;;;;7.65;97.20;96776.84;105777;1259;61531;-22
2023/11/12 01:58:05;;;;;;;3.00;2.10;;;;;;;7.51;98.63;96779.71;105806;1254;74099;-22
2023/11/12 02:00:33;;;;;;;6.30;3.30;;;;;;;7.82;97.00;96774.86;105737;1253;74190;-22
2023/11/12 02:03:02;;;;;;;6.70;2.50;;;;;;;7.71;96.89;96772.60;105744;1253;73041;-22
2023/11/12 02:05:30;;;;;;;3.90;3.20;;;;;;;7.60;97.50;96767.15;105664;1253;61046;-22
2023/11/12 02:08:00;;;;;;;3.50;2.60;;;;;;;7.40;99.06;96767.52;105849;1255;61193;-23
2023/11/12 02:10:35;;;;;;;4.40;2.90;;;;;;;7.51;98.59;96763.23;105841;1253;73767;-22
2023/11/12 02:13:03;;;;;;;;;;;;;;;7.72;96.47;96755.39;105846;1253;74231;-23
2023/11/12 02:15:31;;;;;;;4.20;2.70;;;;;;;7.64;96.25;96755.95;105827;1254;72536;-22
2023/11/12 02:17:58;;;;;;;4.30;2.60;;;;;;;7.44;97.68;96756.96;105738;1253;61130;-23
2023/11/12 02:20:26;;;;;;;3.50;2.30;;;;;;;7.35;98.28;96757.66;105723;1257;61112;-23
2023/11/12 02:22:54;;;;;;;4.40;2.60;;;;;;;7.66;96.96;96751.34;105498;1258;73861;-23
2023/11/12 02:25:21;;;;;;;3.00;2.50;;;;;;;7.75;94.91;96740.40;105719;1253;74175;-23
2023/11/12 02:27:48;;;;;;;3.40;2.00;;;;;;;7.52;95.97;96745.95;105789;1253;72735;-24
2023/11/12 02:30:18;;;;;;;3.10;2.30;;;;;;;7.39;97.29;96745.34;105731;1253;61119;-25
2023/11/12 02:32:47;;;;;;;2.20;1.90;;;;;;;7.46;97.72;96742.04;105808;1258;61539;-23
2023/11/12 02:35:14;;;;;;;2.90;1.90;;;;;;;7.66;95.59;96742.38;105719;1253;72653;-23
2023/11/12 02:37:41;;;;;;;2.10;1.70;;;;;;;7.58;95.46;96732.31;105796;1256;74043;-23
2023/11/12 02:40:09;;;;;;;3.50;1.80;;;;;;;7.49;95.75;96737.27;105743;1253;73033;-23
2023/11/12 02:42:37;;;;;;;1.90;1.30;;;;;;;7.33;97.11;96741.29;105719;1257;61252;-23
2023/11/12 02:45:10;;;;;;;2.50;1.60;;;;;;;7.49;96.35;96739.30;105691;1261;61122;-24
2023/11/12 02:47:37;;;;;;;;;;;;;;;7.63;95.35;96740.14;105702;1260;72307;-24
2023/11/12 02:50:31;;;;;;;1.70;1.50;;;;;;;7.51;95.63;96744.49;105854;1254;74275;-23
2023/11/12 02:53:03;;;;;;;3.20;1.60;;;;;;;7.32;96.82;96740.64;105870;1254;71665;-23
2023/11/12 02:55:31;;;;;;;1.90;1.30;;;;;;;7.17;99.05;96744.70;105708;1253;61842;-23
2023/11/12 02:57:58;;;;;;;1.80;1.40;;;;;;;7.55;96.82;96739.02;105732;1259;61732;-23
2023/11/12 03:00:28;;;;;;;1.90;1.60;;;;;;;7.50;96.58;96734.06;105914;1251;72726;-23
2023/11/12 03:04:26;;;;;;;1.60;1.30;;;;;;;7.21;98.63;96740.54;105592;1256;75621;-23
2023/11/12 03:06:54;;;;;;;1.40;1.10;;;;;;;7.20;99.44;96745.42;105618;1258;73063;-23
2023/11/12 03:09:21;;;;;;;1.90;1.10;;;;;;;7.42;97.39;96731.07;105625;1254;61330;-23
2023/11/12 03:11:48;;;;;;;2.10;1.30;;;;;;;7.50;96.41;96734.88;105488;1257;61061;-23
2023/11/12 03:14:17;;;;;;;1.80;1.60;;;;;;;7.47;96.35;96730.09;105553;1255;73810;-23
2023/11/12 03:16:44;;;;;;;1.70;1.10;;;;;;;7.24;98.34;96731.56;105669;1258;74772;-23
2023/11/12 03:19:11;;;;;;;3.10;1.80;;;;;;;7.56;97.20;96735.46;105626;1257;72648;-23
2023/11/12 03:21:40;;;;;;;3.70;2.40;;;;;;;7.89;94.81;96733.06;105597;1256;61246;-23
2023/11/12 03:24:11;;;;;;;2.70;2.20;;;;;;;7.69;95.86;96730.17;105619;1260;61221;-23
2023/11/12 03:26:38;;;;;;;3.30;1.90;;;;;;;7.21;98.61;96728.77;105564;1257;73755;-23
2023/11/12 03:29:05;;;;;;;1.90;1.40;;;;;;;7.17;98.94;96734.70;105664;1256;74310;-23
2023/11/12 03:31:32;;;;;;;4.00;1.60;;;;;;;7.45;96.94;96727.12;105843;1254;71542;-23
2023/11/12 03:33:59;;;;;;;4.00;1.80;;;;;;;7.62;95.37;96729.85;105632;1255;61047;-23
2023/11/12 03:36:27;;;;;;;2.00;1.80;;;;;;;7.52;95.50;96731.70;105550;1251;61197;-23
2023/11/12 03:38:55;;;;;;;2.80;1.70;;;;;;;7.51;96.05;96735.42;105607;1254;73676;-23
2023/11/12 03:41:22;;;;;;;6.80;2.10;;;;;;;7.34;97.55;96734.73;105856;1256;74102;-23
2023/11/12 03:43:49;;;;;;;2.40;2.00;;;;;;;7.86;94.92;96730.41;105609;1254;72661;-23
2023/11/12 03:46:16;;;;;;;4.20;2.80;;;;;;;7.87;93.83;96730.54;105762;1253;61091;-23
2023/11/12 03:48:43;;;;;;;2.80;2.20;;;;;;;7.71;94.79;96730.85;105901;1256;61900;-23
2023/11/12 03:51:10;;;;;;;5.10;1.90;;;;;;;7.35;97.13;96736.30;105877;1254;73861;-23
2023/11/12 03:53:37;;;;;;;2.00;1.40;;;;;;;7.34;98.09;96735.02;105788;1258;74688;-23
2023/11/12 03:56:05;;;;;;;2.80;2.50;;;;;;;7.74;95.22;96730.61;105839;1252;72610;-23
2023/11/12 03:58:33;;;;;;;2.30;2.00;;;;;;;7.69;95.24;96734.47;105717;1251;61210;-23
2023/11/12 04:01:00;;;;;;;3.40;1.60;;;;;;;7.52;96.07;96739.51;105692;1259;61123;-23
2023/11/12 04:03:27;;;;;;;2.90;1.50;;;;;;;7.39;96.54;96740.67;105720;1258;73633;-23
2023/11/12 04:05:55;;;;;;;2.10;1.50;;;;;;;7.29;97.71;96741.23;105788;1253;74367;-23
2023/11/12 04:08:22;;;;;;;2.80;1.60;;;;;;;7.64;95.47;96736.23;105913;1253;72703;-23
2023/11/12 04:10:49;;;;;;;2.70;2.20;;;;;;;7.41;96.09;96735.83;105889;1251;61139;-24
2023/11/12 04:13:16;;;;;;;2.70;2.10;;;;;;;7.23;97.50;96739.83;105893;1257;61196;-23
2023/11/12 04:15:43;;;;;;;2.10;1.60;;;;;;;7.02;99.20;96746.98;105849;1253;73801;-23
2023/11/12 04:18:10;;;;;;;3.50;1.70;;;;;;;6.98;99.76;96744.73;105860;1255;74762;-23
2023/11/12 04:20:38;;;;;;;2.30;2.00;;;;;;;7.45;96.74;96742.52;105559;1256;72565;-23
2023/11/12 04:23:05;;;;;;;4.60;2.00;;;;;;;7.37;96.22;96736.41;105544;1259;61159;-23
2023/11/12 04:25:32;;;;;;;3.10;2.00;;;;;;;7.18;97.21;96741.66;105749;1256;61091;-23
2023/11/12 04:27:59;;;;;;;2.70;2.00;;;;;;;6.82;99.46;96736.05;105712;1253;74385;-23
2023/11/12 04:30:26;;;;;;;3.00;1.90;;;;;;;7.02;99.21;96735.27;105630;1258;74823;-23
2023/11/12 04:32:53;;;;;;;3.70;2.40;;;;;;;7.31;97.32;96738.25;105790;1259;72477;-23
2023/11/12 04:35:22;;;;;;;3.40;2.60;;;;;;;7.05;98.04;96739.62;105524;1253;61221;-23
2023/11/12 04:37:50;;;;;;;3.50;2.80;;;;;;;6.80;99.78;96742.27;105678;1259;61189;-23
2023/11/12 04:40:17;;;;;;;4.70;2.60;;;;;;;6.96;99.75;96746.25;105796;1253;73720;-23
2023/11/12 04:42:44;;;;;;;3.20;2.70;;;;;;;7.06;98.46;96738.92;105809;1256;74170;-23
2023/11/12 04:45:11;;;;;;;4.60;3.30;;;;;;;7.06;98.61;96747.11;105692;1254;73286;-22
2023/11/12 04:47:39;;;;;;;3.70;2.90;;;;;;;6.93;99.58;96751.98;105772;1256;61090;-22
2023/11/12 04:50:06;;;;;;;2.50;2.30;;;;;;;6.65;99.92;96744.98;105789;1255;61113;-23
2023/11/12 04:52:33;;;;;;;2.90;2.30;;;;;;;6.90;99.78;96749.58;105602;1254;74365;-23
2023/11/12 04:55:01;;;;;;;4.80;3.30;;;;;;;7.01;98.60;96744.52;105878;1254;74349;-23
2023/11/12 04:57:28;;;;;;;5.70;2.90;;;;;;;6.81;99.67;96751.82;105771;1254;73075;-23
2023/11/12 04:59:55;;;;;;;3.60;2.70;;;;;;;6.59;99.94;96750.63;105885;1256;61090;-23
2023/11/12 05:02:22;;;;;;;4.20;2.90;;;;;;;6.71;100.00;96758.88;105827;1256;61081;-22
2023/11/12 05:04:49;;;;;;;4.60;3.40;;;;;;;6.91;99.48;96756.15;105868;1254;73904;-24
2023/11/12 05:07:16;;;;;;;6.50;3.90;;;;;;;6.88;99.39;96757.52;105700;1259;72870;-23
2023/11/12 05:09:43;;;;;;;6.80;4.20;;;;;;;6.79;99.88;96763.48;105924;1254;73104;-23
2023/11/12 05:12:10;;;;;;;4.80;3.50;;;;;;;6.54;100.00;96766.64;105934;1253;62004;-23
2023/11/12 05:14:38;;;;;;;5.60;3.90;;;;;;;6.73;100.00;96761.98;105840;1256;61197;-23
2023/11/12 05:17:05;;;;;;;6.30;4.00;;;;;;;6.91;99.25;96759.98;105881;1256;73608;-23
2023/11/12 05:19:32;;;;;;;7.10;4.90;;;;;;;6.76;99.19;96757.69;105780;1259;74864;-23
2023/11/12 05:21:59;;;;;;;6.00;4.40;;;;;;;6.49;100.00;96766.13;105818;1251;73260;-23
2023/11/12 05:24:26;;;;;;;5.60;3.60;;;;;;;6.50;100.00;96774.30;105879;1256;61753;-23
2023/11/12 05:26:53;;;;;;;6.60;4.60;;;;;;;6.70;100.00;96776.11;105714;1254;61100;-23
2023/11/12 05:29:20;;;;;;;5.10;4.10;;;;;;;6.68;100.00;96777.69;105866;1255;74419;-23
2023/11/12 05:31:48;;;;;;;5.10;4.20;;;;;;;6.63;100.00;96781.79;105801;1255;74256;-23
2023/11/12 05:34:15;;;;;;;5.90;4.30;;;;;;;6.49;100.00;96783.16;105595;1253;72581;-23
2023/11/12 05:36:42;;;;;;;5.50;4.00;;;;;;;6.74;100.00;96786.90;105597;1256;61147;-23
2023/11/12 05:39:12;;;;;;;7.10;4.30;;;;;;;6.77;99.95;96788.11;105613;1259;61137;-23
2023/11/12 05:41:39;;;;;;;5.90;3.80;;;;;;;6.65;100.00;96792.21;105566;1254;73857;-23
2023/11/12 05:44:06;;;;;;;7.40;3.70;;;;;;;6.50;100.00;96793.63;105753;1256;74923;-23
2023/11/12 05:46:33;;;;;;;4.20;3.50;;;;;;;6.71;100.00;96789.23;105632;1256;72771;-23
2023/11/12 05:49:00;;;;;;;5.90;3.70;;;;;;;6.90;99.36;96797.48;105876;1253;61153;-23
2023/11/12 05:51:27;;;;;;;5.20;4.70;;;;;;;6.76;99.57;96800.86;105653;1254;61168;-23
2023/11/12 05:53:54;;;;;;;5.80;3.80;;;;;;;6.46;100.00;96797.50;105860;1255;73641;-23
2023/11/12 05:56:21;;;;;;;4.50;3.30;;;;;;;6.57;100.00;96801.16;105898;1255;74525;-23
2023/11/12 05:58:48;;;;;;;5.20;3.30;;;;;;;6.77;99.80;96795.17;105914;1256;72299;-23
2023/11/12 06:01:15;;;;;;;4.70;3.00;;;;;;;6.63;99.73;96807.60;105891;1255;61470;-24
2023/11/12 06:03:42;;;;;;;4.80;3.80;;;;;;;6.58;100.00;96811.27;105821;1262;61052;-23
2023/11/12 06:06:09;;;;;;;4.80;3.40;;;;;;;6.43;100.00;96812.21;105737;1254;73789;-23
2023/11/12 06:08:39;;;;;;;6.60;3.80;;;;;;;6.83;99.60;96818.89;105809;1254;74398;-22
2023/11/12 06:11:07;;;;;;;4.40;2.90;;;;;;;6.77;99.42;96817.80;105681;1256;74099;-23
2023/11/12 06:13:34;;;;;;;4.70;3.40;;;;;;;6.73;99.37;96822.15;105889;1254;61116;-23
2023/11/12 06:16:01;;;;;;;7.30;2.90;;;;;;;6.45;100.00;96823.25;105749;1252;61129;-24
2023/11/12 06:18:28;;;;;;;5.10;3.10;;;;;;;6.74;99.84;96827.23;105907;1256;73873;-22
2023/11/12 06:20:55;;;;;;;4.30;3.50;;;;;;;6.94;97.98;96826.02;105882;1256;73431;-23
2023/11/12 06:23:22;;;;;;;5.30;3.10;;;;;;;6.76;98.82;96824.80;105673;1257;72528;-22
2023/11/12 06:25:49;;;;;;;5.40;2.80;;;;;;;6.59;99.66;96821.11;105813;1255;61151;-22
2023/11/12 06:28:16;;;;;;;3.80;2.30;;;;;;;6.57;100.00;96823.23;105684;1265;61208;-22
2023/11/12 06:30:44;;;;;;;4.90;2.80;;;;;;;6.75;99.55;96826.98;105781;1257;73771;-22
2023/11/12 06:33:11;;;;;;;4.60;3.00;;;;;;;6.70;99.34;96825.89;105738;1258;74227;-22
2023/11/12 06:35:40;;;;;;;5.10;3.60;;;;;;;6.73;99.15;96826.16;105671;1257;73239;-22
2023/11/12 06:38:07;;;;;;;6.30;3.50;;;;;;;6.49;100.00;96829.25;105682;1256;61676;-22
2023/11/12 06:40:34;;;;;;;4.60;3.10;;;;;;;6.55;100.00;96833.61;105902;1255;61176;-22
2023/11/12 06:43:01;;;;;;;4.70;2.60;;;;;;;6.66;99.63;96837.67;105892;1256;73592;-23
2023/11/12 06:45:28;;;;;;;4.50;2.90;;;;;;;6.55;99.79;96834.35;105677;1260;74324;-22
2023/11/12 06:47:55;;;;;;;4.40;2.80;;;;;;;6.39;100.00;96841.54;105905;1256;72764;-22
2023/11/12 06:50:22;;;;;;;3.40;2.50;;;;;;;6.45;100.00;96840.42;105864;1254;60988;-22
2023/11/12 06:52:49;;;;;;;4.50;2.70;;;;;;;6.77;98.97;96847.27;105871;1255;61155;-23
2023/11/12 06:55:16;;;;;;;3.60;2.90;;;;;;;6.63;98.78;96844.32;105709;1257;74077;-23
2023/11/12 06:57:43;;;;;;;5.20;3.60;;;;;;;6.42;99.90;96839.73;105901;1256;74345;-23
2023/11/12 07:00:12;;;;;;;4.10;2.50;;;;;;;6.29;100.00;96843.45;105917;1251;72717;-22
2023/11/12 07:02:38;;;;;;;4.60;2.90;;;;;;;6.65;99.38;96842.95;105569;1255;60977;-23
2023/11/12 07:05:06;;;;;;;3.80;2.90;;;;;;;6.68;98.76;96847.34;105790;1256;61123;-22
2023/11/12 07:07:33;;;;;;;4.70;3.20;;;;;;;6.61;99.00;96845.92;105768;1260;72681;-22
2023/11/12 07:10:00;;;;;;;4.30;3.30;;;;;;;6.30;99.86;96846.71;105914;1255;73736;-23
2023/11/12 07:12:27;;;;;;;3.50;2.80;;;;;;;6.41;99.99;96848.46;105821;1254;72550;-23
2023/11/12 07:14:55;;;;;;;3.80;2.70;;;;;;;6.54;99.42;96848.89;105653;1255;61102;-23
2023/11/12 07:17:22;;;;;;;6.30;2.90;;;;;;;6.45;99.92;96854.27;105711;1257;61145;-22
2023/11/12 07:19:50;;;;;;;4.50;2.80;;;;;;;6.23;100.00;96847.29;105911;1255;73818;-22
2023/11/12 07:22:17;;;;;;;5.80;3.00;;;;;;;6.22;100.00;96855.15;105667;1259;74131;-23
2023/11/12 07:24:44;;;;;;;4.00;3.00;;;;;;;6.59;99.80;96859.52;105661;1255;73129;-23
2023/11/12 07:27:11;;;;;;;3.40;2.70;;;;;;;6.50;99.55;96858.41;105687;1251;61130;-23
2023/11/12 07:29:38;;;;;;;5.20;2.90;;;;;;;6.34;100.00;96860.45;105660;1257;61093;-23
2023/11/12 07:32:06;;;;;;;6.20;3.30;;;;;;;6.06;100.00;96863.36;105868;1255;73753;-23
2023/11/12 07:34:33;;;;;;;4.40;2.90;;;;;;;6.31;100.00;96863.55;105738;1259;74237;-22
2023/11/12 07:37:00;;;;;;;5.90;3.70;;;;;;;6.51;99.00;96857.58;105869;1255;72521;-23
2023/11/12 07:39:28;;;;;;;4.10;3.30;;;;;;;6.44;99.00;96866.88;105675;1257;61070;-22
2023/11/12 07:41:55;;;;;;;5.20;3.80;;;;;;;6.23;99.84;96870.20;105735;1256;61128;-23
2023/11/12 07:44:23;;;;;;;6.20;3.70;;;;;;;6.37;99.77;96870.19;105622;1254;73640;-23
2023/11/12 07:46:50;;;;;;;7.20;4.80;;;;;;;6.54;97.74;96864.91;105855;1255;74064;-23
2023/11/12 07:49:17;;;;;;;5.70;3.40;;;;;;;6.39;98.40;96866.77;105757;1254;72718;-23
2023/11/12 07:51:44;;;;;;;6.70;4.20;;;;;;;6.24;99.44;96872.33;105899;1256;61102;-23
2023/11/12 07:54:11;;;;;;;4.30;3.30;;;;;;;6.08;100.00;96872.13;105924;1264;61100;-22
2023/11/12 07:56:38;;;;;;;4.30;3.00;;;;;;;6.48;98.85;96881.05;105883;1257;73912;-22
2023/11/12 07:59:08;;;;;;;4.10;3.40;;;;;;;6.41;98.31;96873.32;105924;1257;74294;-23
2023/11/12 08:01:35;;;;;;;6.40;4.10;;;;;;;6.34;98.93;96874.96;105930;1256;72483;-23
2023/11/12 08:04:03;;;;;;;4.30;3.00;;;;;;;6.26;99.47;96882.67;105710;1258;61197;-22
2023/11/12 08:06:30;;;;;;;3.50;3.10;;;;;;;6.42;98.91;96885.38;105893;1254;61138;-23
2023/11/12 08:08:59;;;;;;;4.10;2.80;;;;;;;6.40;98.50;96890.21;105948;1257;73805;-23
2023/11/12 08:11:27;;;;;;;4.10;2.90;;;;;;;6.45;98.36;96896.10;105720;1254;74831;-23
2023/11/12 08:13:56;;;;;;;3.80;2.50;;;;;;;6.28;99.36;96903.60;105885;1253;72485;-23
2023/11/12 08:16:23;;;;;;;5.00;2.90;;;;;;;6.42;99.03;96907.80;105906;1263;61267;-23
2023/11/12 08:18:50;;;;;;;6.70;2.80;;;;;;;6.50;98.04;96909.05;105841;1256;61162;-23
2023/11/12 08:21:19;;;;;;;5.30;3.60;;;;;;;6.48;98.64;96922.42;105899;1256;73649;-23
2023/11/12 08:23:47;;;;;;;5.70;3.40;;;;;;;6.27;99.79;96919.27;105956;1257;74195;-23
2023/11/12 08:26:15;;;;;;;6.10;4.30;;;;;;;6.06;99.96;96902.66;105954;1256;72687;-23
2023/11/12 08:28:42;;;;;;;8.20;4.40;;;;;;;6.36;98.64;96918.36;105831;1258;61144;-23
2023/11/12 08:31:09;;;;;;;5.30;3.70;;;;;;;6.32;98.99;96926.18;105709;1255;61103;-23
2023/11/12 08:33:36;;;;;;;7.90;5.30;;;;;;;6.47;98.02;96932.63;105880;1257;73938;-23
2023/11/12 08:36:03;;;;;;;7.60;3.80;;;;;;;6.18;99.82;96926.98;105919;1256;74298;-23
2023/11/12 08:38:31;;;;;;;7.70;5.30;;;;;;;6.43;98.07;96934.58;105743;1258;72795;-23
2023/11/12 08:40:58;;;;;;;6.80;4.90;;;;;;;6.56;97.29;96938.03;105756;1251;61179;-24
2023/11/12 08:43:25;;;;;;;9.20;4.90;;;;;;;6.28;98.09;96937.55;105658;1260;61213;-23
2023/11/12 08:45:52;;;;;;;8.10;4.10;;;;;;;6.16;99.42;96947.36;105846;1254;73861;-24
2023/11/12 08:48:20;;;;;;;6.30;3.70;;;;;;;6.56;97.38;96948.86;105893;1254;74337;-23
2023/11/12 08:50:47;;;;;;;6.50;4.80;;;;;;;6.63;96.71;96959.35;105586;1257;72769;-23
2023/11/12 08:53:14;;;;;;;8.20;5.00;;;;;;;6.44;98.09;96962.40;105689;1253;61157;-23
2023/11/12 08:55:43;;;;;;;9.20;4.30;;;;;;;6.22;99.61;96963.88;105798;1256;62625;-23
2023/11/12 08:58:10;;;;;;;7.50;5.60;;;;;;;6.31;99.29;96960.89;105586;1254;73899;-23
2023/11/12 09:00:37;;;;;;;10.00;4.70;;;;;;;6.45;97.90;96961.58;105686;1257;74390;-23
2023/11/12 09:03:04;;;;;;;8.10;4.80;;;;;;;6.50;97.57;96973.02;105871;1254;72686;-23
2023/11/12 09:05:32;;;;;;;8.00;5.10;;;;;;;6.27;98.04;96958.91;105715;1254;61153;-23
2023/11/12 09:08:03;;;;;;;11.20;6.00;;;;;;;6.23;99.23;96974.84;105949;1256;61079;-23
2023/11/12 09:10:32;;;;;;;9.30;6.00;;;;;;;6.42;98.45;96972.98;105908;1254;73838;-23
2023/11/12 09:13:00;;;;;;;9.10;5.90;;;;;;;6.39;97.03;96967.02;105729;1254;74183;-24
2023/11/12 09:15:27;;;;;;;8.70;6.80;;;;;;;6.30;98.22;96973.96;105917;1253;72736;-23
2023/11/12 09:17:55;;;;;;;8.00;5.40;;;;;;;6.09;99.33;96978.66;105941;1256;61756;-23
2023/11/12 09:20:22;;;;;;;10.90;7.60;;;;;;;6.29;98.23;96975.20;105740;1253;61133;-23
2023/11/12 09:22:50;;;;;;;10.50;7.10;;;;;;;6.34;97.52;96963.33;105705;1254;72840;-23
2023/11/12 09:25:17;;;;;;;12.40;6.10;;;;;;;6.13;98.07;96972.30;105719;1254;74925;-24
2023/11/12 09:27:45;;;;;;;8.00;5.50;;;;;;;6.06;99.56;96969.88;105918;1254;72508;-24
2023/11/12 09:30:12;;;;;;;10.20;5.90;;;;;;;6.13;99.23;96980.24;105703;1254;61141;-23
2023/11/12 09:32:39;;;;;;;10.90;6.50;;;;;;;6.32;97.80;96977.85;105882;1256;61052;-23
2023/11/12 09:35:08;;;;;;;8.70;5.80;;;;;;;6.10;98.83;96972.73;105920;1254;72848;-24
2023/11/12 09:37:35;;;;;;;8.30;5.20;;;;;;;6.19;98.52;96976.00;105704;1254;72913;-23
2023/11/12 09:40:07;;;;;;;9.70;6.20;;;;;;;6.05;99.50;96979.20;105895;1257;72693;-24
2023/11/12 09:42:36;;;;;;;8.90;6.10;;;;;;;6.43;97.55;96992.71;105910;1255;61164;-23
2023/11/12 09:45:05;;;;;;;9.40;6.50;;;;;;;6.09;97.26;96975.52;105658;1254;61122;-25
2023/11/12 09:47:48;;;;;;;8.80;6.30;;;;;;;6.11;98.01;96984.88;105649;1254;73912;-24
2023/11/12 09:50:16;;;;;;;9.10;5.70;;;;;;;5.91;99.90;96986.08;105681;1254;74147;-24
2023/11/12 09:52:45;;;;;;;9.90;6.10;;;;;;;6.14;98.64;96982.71;105465;1260;72516;-24
2023/11/12 09:55:12;;;;;;;11.80;7.10;;;;;;;6.19;97.62;96985.81;105548;1254;61161;-24
2023/11/12 09:57:39;;;;;;;11.30;7.40;;;;;;;6.14;98.04;96999.73;105862;1255;61161;-24
2023/11/12 10:00:07;;;;;;;9.50;5.30;;;;;;;6.04;98.89;96987.77;105823;1254;73677;-24
2023/11/12 10:02:35;;;;;;;10.90;6.70;;;;;;;6.42;96.51;96990.76;105591;1255;74321;-24
2023/11/12 10:05:04;;;;;;;9.50;5.80;;;;;;;6.28;96.48;96985.32;105683;1258;72684;-25
2023/11/12 10:07:31;;;;;;;10.70;7.10;;;;;;;6.05;98.64;97004.08;105663;1254;61185;-25
2023/11/12 10:12:55;;;;;;;6.50;5.00;;;;;;;6.27;97.44;97000.54;102658;1290;600591;-24
2023/11/12 10:15:25;;;;;;;13.50;6.80;;;;;;;6.28;96.87;97009.48;105066;1267;62295;-26
2023/11/12 10:17:56;;;;;;;9.90;6.00;;;;;;;6.04;98.25;97014.48;104862;1267;61237;-25
2023/11/12 10:20:30;;;;;;;12.60;6.90;;;;;;;6.22;98.02;97021.09;104836;1272;71809;-25
2023/11/12 10:22:58;;;;;;;9.70;5.60;;;;;;;6.33;97.23;97010.18;105224;1268;74375;-22
2023/11/12 10:25:46;;;;;;;15.40;6.80;;;;;;;6.38;96.67;97032.65;102669;1264;3471145;-25
2023/11/12 10:28:15;;;;;;;9.40;6.20;;;;;;;6.08;98.00;97026.82;105222;1266;61582;-24
2023/11/12 10:30:46;;;;;;;10.10;6.10;;;;;;;6.09;98.53;97032.57;105138;1266;61125;-25
2023/11/12 10:33:15;;;;;;;8.00;5.70;;;;;;;6.17;97.95;97028.38;104909;1261;72203;-23
2023/11/12 10:35:45;;;;;;;10.00;5.50;;;;;;;6.17;97.80;97032.52;105103;1270;76397;-23
2023/11/12 10:38:15;;;;;;;8.70;5.30;;;;;;;6.04;99.07;97050.80;105156;1266;71929;-25
2023/11/12 10:41:05;;;;;;;9.70;6.50;;;;;;;5.96;99.81;97057.06;105097;1260;61170;-26
2023/11/12 10:51:18;;;;;;;6.00;4.20;;;;;;;6.25;98.43;97068.84;102586;1293;600293;-24
2023/11/12 10:53:45;;;;;;;8.50;5.00;;;;;;;6.40;96.65;97063.30;104772;1273;61167;-25
2023/11/12 10:56:14;;;;;;;8.90;5.70;;;;;;;6.45;96.04;97060.90;104794;1272;61109;-23
2023/11/12 10:58:42;;;;;;;6.50;5.20;;;;;;;6.24;97.15;97063.43;104678;1268;71748;-25
2023/11/12 11:01:10;;;;;;;7.80;4.60;;;;;;;6.11;98.24;97079.65;104767;1272;74315;-24
2023/11/12 11:03:38;;;;;;;9.40;5.60;;;;;;;6.19;98.26;97078.70;104794;1271;72656;-24
2023/11/12 11:06:07;;;;;;;7.30;4.90;;;;;;;6.39;96.44;97078.90;102672;1269;3426531;-24
2023/11/12 11:08:35;;;;;;;9.00;5.30;;;;;;;6.32;96.34;97068.48;104851;1265;61155;-24
2023/11/12 11:18:47;;;;;;;10.00;5.80;;;;;;;6.47;95.79;97096.59;102642;1292;600177;-24
2023/11/12 11:21:15;;;;;;;8.40;5.10;;;;;;;6.32;96.89;97111.95;104859;1267;61244;-26
2023/11/12 11:23:55;;;;;;;7.50;5.10;;;;;;;6.28;98.18;97117.69;104857;1268;61166;-25
2023/11/12 11:26:23;;;;;;;7.70;5.60;;;;;;;6.56;95.72;97113.48;104775;1267;71302;-26
2023/11/12 11:29:13;;;;;;;8.70;5.40;;;;;;;6.49;95.53;97111.05;104896;1272;73164;-26
2023/11/12 11:31:45;;;;;;;9.00;6.20;;;;;;;6.39;96.38;97114.42;102197;1264;3548393;-23
2023/11/12 11:34:13;;;;;;;6.90;4.30;;;;;;;6.14;98.30;97126.17;105261;1261;61190;-23
2023/11/12 11:36:59;;;;;;;9.20;6.10;;;;;;;6.42;96.94;97125.98;105156;1267;61180;-25
2023/11/12 11:39:28;;;;;;;8.30;4.80;;;;;;;6.45;96.17;97128.83;105036;1263;72346;-24
2023/11/12 11:41:58;;;;;;;8.90;6.10;;;;;;;6.22;97.09;97134.77;105248;1264;75882;-23
2023/11/12 11:44:37;;;;;;;7.60;5.20;;;;;;;6.14;99.04;97150.04;105200;1268;73162;-26
2023/11/12 11:47:09;;;;;;;7.70;5.30;;;;;;;6.46;96.69;97133.27;105245;1265;61703;-24
2023/11/12 11:49:37;;;;;;;8.40;5.30;;;;;;;6.49;96.13;97147.61;105276;1266;61119;-24
2023/11/12 11:59:45;;;;;;;11.90;6.40;;;;;;;6.55;95.36;97153.73;102662;1292;600914;-24
2023/11/12 12:02:16;;;;;;;10.40;6.00;;;;;;;6.33;95.88;97164.90;108689;1264;60059;-24